Kinmundy, Illinois
Current Conditions -  °F | °C
As of 4:55 AM on Wednesday 26 Nov 2014 (Local Time) from KENL Reporting Station
Clear Clear  
Wind Chill: 26°   Ceiling: Unl
Heat Index: 26°   Visibility: 10mi
Dew Point: 22°   Wind: 3mph
Humidity: 88%   Direction: 120°ESE
Pressure: 30.11"   Gusts: NA
Location:  38.77°N, 88.85°W
Report Text: KENL 261055Z AUTO 12003KT 10SM CLR M04/M05 A3011 RMK AO2 T10361053
Loading
Personal Weather Stations






























Interactive Weather Map New forecast layout! Learn more

10-Day Weather Forecast

Advertisements
Track Severe Weather on mobile